createdAt,value
2023-03-08T00:02:01.217Z,0.90
2023-03-08T00:04:29.689Z,0.97
2023-03-08T00:06:57.804Z,1.05
2023-03-08T00:09:30.148Z,1.14
2023-03-08T00:11:58.143Z,1.26
2023-03-08T00:14:26.463Z,1.38
2023-03-08T00:16:55.861Z,1.44
2023-03-08T00:19:23.879Z,1.46
2023-03-08T00:21:52.417Z,1.49
2023-03-08T00:24:25.631Z,1.52
2023-03-08T00:26:53.882Z,1.54
2023-03-08T00:29:22.127Z,1.52
2023-03-08T00:31:51.773Z,1.47
2023-03-08T00:34:21.274Z,1.44
2023-03-08T00:36:49.438Z,1.43
2023-03-08T00:39:19.264Z,1.44
2023-03-08T00:41:47.335Z,1.42
2023-03-08T00:44:15.457Z,1.41
2023-03-08T00:46:44.324Z,1.41
2023-03-08T00:49:15.037Z,1.40
2023-03-08T00:51:43.317Z,1.39
2023-03-08T00:54:11.589Z,1.37
2023-03-08T00:56:41.196Z,1.43
2023-03-08T00:59:09.250Z,1.55
2023-03-08T01:01:39.701Z,1.68
2023-03-08T01:04:09.863Z,1.84
2023-03-08T01:06:39.747Z,1.98
2023-03-08T01:09:12.204Z,2.10
2023-03-08T01:11:41.095Z,2.20
2023-03-08T01:14:09.418Z,2.31
2023-03-08T01:16:37.852Z,2.37
2023-03-08T01:19:06.104Z,2.37
2023-03-08T01:21:34.624Z,2.37
2023-03-08T01:24:03.091Z,2.36
2023-03-08T01:26:31.778Z,2.34
2023-03-08T01:29:00.057Z,2.32
2023-03-08T01:31:30.173Z,2.34
2023-03-08T01:34:00.431Z,2.35
2023-03-08T01:36:28.792Z,2.38
2023-03-08T01:39:00.532Z,2.38
2023-03-08T01:41:30.197Z,2.38
2023-03-08T01:43:58.518Z,2.49
2023-03-08T01:46:31.303Z,2.63
2023-03-08T01:49:29.277Z,2.74
2023-03-08T01:52:16.551Z,2.88
2023-03-08T01:54:47.139Z,3.03
2023-03-08T01:57:37.848Z,3.09
2023-03-08T02:00:22.952Z,3.13
2023-03-08T02:03:01.620Z,3.14
2023-03-08T02:05:30.929Z,3.14
2023-03-08T02:08:05.959Z,3.16
2023-03-08T02:10:35.973Z,3.13
2023-03-08T02:13:07.987Z,3.10
2023-03-08T02:15:38.982Z,3.07
2023-03-08T02:18:07.566Z,3.06
2023-03-08T02:20:40.660Z,3.05
2023-03-08T02:23:10.674Z,3.05
2023-03-08T02:25:39.157Z,3.03
2023-03-08T02:28:09.688Z,3.04
2023-03-08T02:30:38.284Z,3.10
2023-03-08T02:33:07.573Z,3.21
2023-03-08T02:35:36.686Z,3.31
2023-03-08T02:38:05.852Z,3.41
2023-03-08T02:40:38.449Z,3.50
2023-03-08T02:43:07.602Z,3.58
2023-03-08T02:45:36.345Z,3.63
2023-03-08T02:48:05.421Z,3.67
2023-03-08T02:50:33.495Z,3.72
2023-03-08T02:53:04.340Z,3.75
2023-03-08T02:55:37.141Z,3.76
2023-03-08T02:58:10.169Z,3.76
2023-03-08T03:00:39.093Z,3.77
2023-03-08T03:03:08.791Z,3.77
2023-03-08T03:05:44.663Z,3.77
2023-03-08T03:08:16.928Z,3.85
2023-03-08T03:10:46.126Z,4.02
2023-03-08T03:13:17.116Z,4.12
2023-03-08T03:15:45.879Z,4.20
2023-03-08T03:18:16.379Z,4.27
2023-03-08T03:20:44.560Z,4.31
2023-03-08T03:23:12.833Z,4.33
2023-03-08T03:25:46.648Z,4.32
2023-03-08T03:28:16.320Z,4.29
2023-03-08T03:30:46.083Z,4.27
2023-03-08T03:33:15.978Z,4.25
2023-03-08T03:35:44.551Z,4.23
2023-03-08T03:38:12.650Z,4.21
2023-03-08T03:40:44.792Z,4.21
2023-03-08T03:43:13.485Z,4.20
2023-03-08T03:45:41.902Z,4.18
2023-03-08T03:48:11.265Z,4.16
2023-03-08T03:50:40.156Z,4.16
2023-03-08T03:53:13.862Z,4.22
2023-03-08T03:55:42.658Z,4.31
2023-03-08T03:58:17.175Z,4.41
2023-03-08T04:01:00.984Z,4.51
2023-03-08T04:03:32.401Z,4.59
2023-03-08T04:06:31.267Z,4.65
2023-03-08T04:09:06.803Z,4.69
2023-03-08T04:11:38.466Z,4.69
2023-03-08T04:14:08.077Z,4.68
2023-03-08T04:16:40.050Z,4.64
2023-03-08T04:19:14.254Z,4.60
2023-03-08T04:21:48.216Z,4.56
2023-03-08T04:24:17.672Z,4.52
2023-03-08T04:26:47.787Z,4.46
2023-03-08T04:29:24.779Z,4.40
2023-03-08T04:31:55.820Z,4.34
2023-03-08T04:34:24.494Z,4.28
2023-03-08T04:36:53.907Z,4.20
2023-03-08T04:39:22.297Z,4.12
2023-03-08T04:41:50.658Z,4.14
2023-03-08T04:44:26.765Z,4.20
2023-03-08T04:46:56.498Z,4.27
2023-03-08T04:49:31.227Z,4.36
2023-03-08T04:52:01.930Z,4.41
2023-03-08T04:54:30.575Z,4.46
2023-03-08T04:57:05.099Z,4.47
2023-03-08T04:59:35.524Z,4.50
2023-03-08T05:02:04.637Z,4.52
2023-03-08T05:04:34.351Z,4.52
2023-03-08T05:07:02.513Z,4.51
2023-03-08T05:09:33.137Z,4.49
2023-03-08T05:12:01.523Z,4.47
2023-03-08T05:14:37.788Z,4.44
2023-03-08T05:17:06.062Z,4.42
2023-03-08T05:19:35.767Z,4.39
2023-03-08T05:22:06.388Z,4.38
2023-03-08T05:24:35.157Z,4.37
2023-03-08T05:27:10.017Z,4.39
2023-03-08T05:29:38.296Z,4.45
2023-03-08T05:32:07.210Z,4.56
2023-03-08T05:34:35.976Z,4.67
2023-03-08T05:37:04.970Z,4.77
2023-03-08T05:39:35.393Z,4.83
2023-03-08T05:42:12.474Z,4.90
2023-03-08T05:44:42.297Z,4.92
2023-03-08T05:47:12.104Z,4.93
2023-03-08T05:49:43.361Z,4.94
2023-03-08T05:52:13.057Z,4.93
2023-03-08T05:54:41.234Z,4.92
2023-03-08T05:57:13.295Z,4.91
2023-03-08T05:59:41.674Z,4.91
2023-03-08T06:02:14.374Z,4.90
2023-03-08T06:04:48.772Z,4.92
2023-03-08T06:07:22.889Z,4.93
2023-03-08T06:09:56.485Z,4.96
2023-03-08T06:12:30.090Z,4.99
2023-03-08T06:15:00.418Z,5.04
2023-03-08T06:17:34.320Z,5.15
2023-03-08T06:20:03.082Z,5.27
2023-03-08T06:22:32.410Z,5.35
2023-03-08T06:25:04.462Z,5.43
2023-03-08T06:27:35.926Z,5.51
2023-03-08T06:30:08.639Z,5.56
2023-03-08T06:32:37.893Z,5.61
2023-03-08T06:35:07.961Z,5.65
2023-03-08T06:37:38.975Z,5.68
2023-03-08T06:40:09.247Z,5.70
2023-03-08T06:42:41.839Z,5.72
2023-03-08T06:45:13.334Z,5.74
2023-03-08T06:47:41.622Z,5.74
2023-03-08T06:50:10.818Z,5.75
2023-03-08T06:52:40.412Z,5.79
2023-03-08T06:55:11.558Z,5.86
2023-03-08T06:57:39.824Z,5.95
2023-03-08T07:00:11.539Z,5.99
2023-03-08T07:02:40.178Z,6.00
2023-03-08T07:05:08.857Z,6.02
2023-03-08T07:07:37.148Z,6.06
2023-03-08T07:10:06.278Z,6.11
2023-03-08T07:12:36.863Z,6.17
2023-03-08T07:15:10.503Z,6.20
2023-03-08T07:17:43.660Z,6.21
2023-03-08T07:20:13.576Z,6.20
2023-03-08T07:22:44.105Z,6.21
2023-03-08T07:25:13.356Z,6.24
2023-03-08T07:27:43.751Z,6.28
2023-03-08T07:30:14.463Z,6.34
2023-03-08T07:32:43.158Z,6.38
2023-03-08T07:35:13.311Z,6.39
2023-03-08T07:37:46.767Z,6.40
2023-03-08T07:40:16.606Z,6.42
2023-03-08T07:42:45.471Z,6.46
2023-03-08T07:45:29.925Z,6.52
2023-03-08T07:47:58.002Z,6.58
2023-03-08T07:50:26.404Z,6.63
2023-03-08T07:52:57.733Z,6.69
2023-03-08T07:55:27.670Z,6.77
2023-03-08T07:57:56.853Z,6.82
2023-03-08T08:00:26.232Z,6.86
2023-03-08T08:16:45.253Z,7.26
2023-03-08T08:19:14.124Z,7.79
2023-03-08T08:21:41.552Z,7.80
2023-03-08T08:24:08.532Z,7.81
2023-03-08T08:26:35.546Z,7.84
2023-03-08T08:29:02.702Z,7.88
2023-03-08T08:31:33.499Z,7.88
2023-03-08T08:34:00.684Z,7.86
2023-03-08T08:36:27.693Z,7.90
2023-03-08T08:38:54.872Z,7.98
2023-03-08T08:41:22.540Z,8.05
2023-03-08T08:43:51.067Z,8.12
2023-03-08T08:46:18.681Z,8.23
2023-03-08T08:48:45.931Z,8.35
2023-03-08T08:51:13.461Z,8.43
2023-03-08T08:53:40.541Z,8.48
2023-03-08T08:56:26.563Z,8.50
2023-03-08T08:58:59.923Z,8.47
2023-03-08T09:01:29.099Z,8.46
2023-03-08T09:04:16.705Z,8.48
2023-03-08T09:06:45.080Z,8.51
2023-03-08T09:09:12.182Z,8.54
2023-03-08T09:11:53.719Z,8.58
2023-03-08T09:14:22.398Z,8.65
2023-03-08T09:16:49.529Z,8.70
2023-03-08T09:19:16.533Z,8.75
2023-03-08T09:21:43.416Z,8.82
2023-03-08T09:24:11.031Z,8.89
2023-03-08T09:26:40.551Z,8.94
2023-03-08T09:29:07.996Z,8.96
2023-03-08T09:31:36.680Z,8.93
2023-03-08T09:34:08.112Z,8.91
2023-03-08T09:36:36.169Z,8.86
2023-03-08T09:39:04.797Z,8.80
2023-03-08T09:41:43.954Z,8.73
2023-03-08T09:44:48.701Z,8.68
2023-03-08T09:47:25.259Z,8.68
2023-03-08T09:49:53.436Z,8.74
2023-03-08T09:52:38.404Z,8.79
2023-03-08T09:55:12.561Z,8.84
2023-03-08T09:57:46.376Z,8.89
2023-03-08T10:00:20.788Z,8.88
2023-03-08T10:03:17.592Z,8.85
2023-03-08T10:05:47.321Z,8.81
2023-03-08T10:08:30.625Z,8.75
2023-03-08T10:11:16.102Z,8.74
2023-03-08T10:13:46.699Z,8.72
2023-03-08T10:16:24.670Z,8.68
2023-03-08T10:18:58.364Z,8.64
2023-03-08T10:21:26.527Z,8.61
2023-03-08T10:24:04.518Z,8.58
2023-03-08T10:26:31.440Z,8.55
2023-03-08T10:28:58.310Z,8.55
2023-03-08T10:31:30.381Z,8.54
2023-03-08T10:34:10.736Z,8.56
2023-03-08T10:36:52.236Z,8.59
2023-03-08T10:39:19.546Z,8.64
2023-03-08T10:41:52.261Z,8.68
2023-03-08T10:44:39.956Z,8.70
2023-03-08T10:47:29.714Z,8.72
2023-03-08T10:50:13.721Z,8.76
2023-03-08T10:52:41.716Z,8.75
2023-03-08T10:55:08.736Z,8.72
2023-03-08T10:57:36.709Z,8.71
2023-03-08T11:00:20.547Z,8.72
2023-03-08T11:02:49.344Z,8.76
2023-03-08T11:05:28.777Z,8.77
2023-03-08T11:07:57.493Z,8.77
2023-03-08T11:10:26.800Z,8.76
2023-03-08T11:13:08.666Z,8.77
2023-03-08T11:15:39.852Z,8.78
2023-03-08T11:18:25.008Z,8.79
2023-03-08T11:20:55.914Z,8.80
2023-03-08T11:23:32.161Z,8.80
2023-03-08T11:26:37.174Z,8.82
2023-03-08T11:29:12.283Z,8.85
2023-03-08T11:32:04.890Z,8.86
2023-03-08T11:35:05.944Z,8.88
2023-03-08T11:37:39.304Z,8.91
2023-03-08T11:40:13.970Z,8.93
2023-03-08T11:42:53.537Z,8.96
2023-03-08T11:45:27.553Z,8.97
2023-03-08T11:48:03.375Z,8.99
2023-03-08T11:50:37.862Z,9.04
2023-03-08T11:53:20.305Z,9.11
2023-03-08T11:56:12.663Z,9.22
2023-03-08T11:58:51.826Z,9.39
2023-03-08T12:01:23.167Z,9.46
2023-03-08T12:03:54.169Z,9.50
2023-03-08T12:06:32.336Z,9.61
2023-03-08T12:09:07.285Z,9.75
2023-03-08T12:11:46.568Z,9.94
2023-03-08T12:14:17.864Z,10.15
2023-03-08T12:17:03.691Z,10.29
2023-03-08T12:19:30.916Z,10.43
2023-03-08T12:22:08.458Z,10.57
2023-03-08T12:24:38.437Z,10.72
2023-03-08T12:27:27.298Z,10.80
2023-03-08T12:30:10.732Z,10.87
2023-03-08T12:32:38.908Z,10.95
2023-03-08T12:35:31.068Z,11.02
2023-03-08T12:38:07.009Z,11.17
2023-03-08T12:40:46.452Z,11.33
2023-03-08T12:43:19.668Z,11.38
2023-03-08T12:45:58.767Z,11.36
2023-03-08T12:48:35.022Z,11.34
2023-03-08T12:51:24.653Z,11.33
2023-03-08T12:53:52.132Z,11.31
2023-03-08T12:56:33.657Z,11.27
2023-03-08T12:59:22.745Z,11.25
2023-03-08T13:01:56.536Z,11.23
2023-03-08T13:04:38.955Z,11.30
2023-03-08T13:07:10.711Z,11.48
2023-03-08T13:09:46.374Z,11.66
2023-03-08T13:12:14.927Z,11.84
2023-03-08T13:14:43.408Z,11.99
2023-03-08T13:17:29.019Z,12.21
2023-03-08T13:20:01.627Z,12.26
2023-03-08T13:22:41.605Z,12.38
2023-03-08T13:25:17.724Z,12.37
2023-03-08T13:28:03.502Z,12.28
2023-03-08T13:30:35.531Z,12.12
2023-03-08T13:33:28.189Z,11.93
2023-03-08T13:36:01.422Z,11.71
2023-03-08T13:38:36.053Z,11.55
2023-03-08T13:41:06.464Z,11.44
2023-03-08T13:43:35.272Z,11.34
2023-03-08T13:46:04.119Z,11.28
2023-03-08T13:48:36.484Z,11.26
2023-03-08T13:51:03.963Z,11.42
2023-03-08T13:53:36.561Z,11.74
2023-03-08T13:56:05.193Z,12.09
2023-03-08T13:58:39.474Z,12.27
2023-03-08T14:01:18.302Z,12.80
2023-03-08T14:03:45.873Z,13.74
2023-03-08T14:06:20.900Z,14.82
2023-03-08T14:08:47.989Z,15.82
2023-03-08T14:11:22.408Z,16.40
2023-03-08T14:13:57.079Z,16.97
2023-03-08T14:16:26.702Z,17.31
2023-03-08T14:18:54.048Z,17.56
2023-03-08T14:21:25.518Z,17.81
2023-03-08T14:23:53.269Z,17.90
2023-03-08T14:26:32.017Z,18.04
2023-03-08T14:29:05.740Z,18.24
2023-03-08T14:31:32.857Z,18.51
2023-03-08T14:34:03.185Z,18.54
2023-03-08T14:36:31.438Z,18.36
2023-03-08T14:39:01.131Z,18.03
2023-03-08T14:41:35.765Z,17.61
2023-03-08T14:44:03.287Z,17.07
2023-03-08T14:46:30.472Z,16.53
2023-03-08T14:49:04.268Z,16.02
2023-03-08T14:51:39.292Z,15.35
2023-03-08T14:54:41.861Z,14.66
2023-03-08T14:57:20.074Z,13.98
2023-03-08T14:59:47.318Z,13.47
2023-03-08T15:02:15.194Z,13.12
2023-03-08T15:04:42.150Z,12.84
2023-03-08T15:07:18.802Z,12.60
2023-03-08T15:09:47.742Z,12.39
2023-03-08T15:12:14.524Z,12.22
2023-03-08T15:14:41.593Z,12.02
2023-03-08T15:17:09.862Z,11.92
2023-03-08T15:19:37.726Z,11.87
2023-03-08T15:22:05.184Z,11.79
2023-03-08T15:24:32.124Z,11.67
2023-03-08T15:26:59.282Z,11.54
2023-03-08T15:29:28.398Z,11.39
2023-03-08T15:31:55.374Z,11.24
2023-03-08T15:34:22.298Z,11.10
2023-03-08T15:36:51.365Z,10.97
2023-03-08T15:39:19.134Z,10.84
2023-03-08T15:41:47.101Z,10.74
2023-03-08T15:44:14.146Z,10.65
2023-03-08T15:46:42.924Z,10.56
2023-03-08T15:49:10.251Z,10.48
2023-03-08T15:51:37.327Z,10.40
2023-03-08T15:54:05.372Z,10.36
2023-03-08T15:56:32.948Z,10.35
2023-03-08T15:59:00.506Z,10.33
2023-03-08T16:01:27.409Z,10.31
2023-03-08T16:03:55.033Z,10.29
2023-03-08T16:06:22.470Z,10.28
2023-03-08T16:08:49.303Z,10.25
2023-03-08T16:11:19.902Z,10.23
2023-03-08T16:13:49.786Z,10.20
2023-03-08T16:16:16.718Z,10.16
2023-03-08T16:18:47.981Z,10.09
2023-03-08T16:21:15.130Z,10.07
2023-03-08T16:23:41.984Z,10.03
2023-03-08T16:26:16.451Z,9.94
2023-03-08T16:28:45.595Z,9.83
2023-03-08T16:31:12.906Z,9.76
2023-03-08T16:33:40.309Z,9.74
2023-03-08T16:36:07.508Z,9.73
2023-03-08T16:38:38.398Z,9.66
2023-03-08T16:41:13.845Z,9.57
2023-03-08T16:43:49.229Z,9.47
2023-03-08T16:46:20.021Z,9.40
2023-03-08T16:48:53.105Z,9.34
2023-03-08T16:51:23.625Z,9.30
2023-03-08T16:53:50.899Z,9.25
2023-03-08T16:56:23.065Z,9.21
2023-03-08T16:58:50.408Z,9.13
2023-03-08T17:01:26.111Z,9.07
2023-03-08T17:03:54.096Z,8.99
2023-03-08T17:06:21.996Z,8.97
2023-03-08T17:08:51.832Z,8.88
2023-03-08T17:11:23.763Z,8.77
2023-03-08T17:13:55.089Z,8.71
2023-03-08T17:16:27.501Z,8.66
2023-03-08T17:18:54.546Z,8.67
2023-03-08T17:21:21.698Z,8.64
2023-03-08T17:23:50.351Z,8.60
2023-03-08T17:26:18.716Z,8.50
2023-03-08T17:28:46.545Z,8.45
2023-03-08T17:31:15.575Z,8.39
2023-03-08T17:33:43.189Z,8.31
2023-03-08T17:36:13.919Z,8.25
2023-03-08T17:38:41.487Z,8.19
2023-03-08T17:41:10.573Z,8.14
2023-03-08T17:43:41.159Z,8.10
2023-03-08T17:46:11.402Z,8.06
2023-03-08T17:48:38.271Z,8.02
2023-03-08T17:51:10.957Z,8.00
2023-03-08T17:53:42.004Z,7.98
2023-03-08T17:56:14.190Z,7.94
2023-03-08T17:58:41.106Z,7.89
2023-03-08T18:01:14.304Z,7.82
2023-03-08T18:03:41.654Z,7.74
2023-03-08T18:06:15.600Z,7.68
2023-03-08T18:08:43.635Z,7.62
2023-03-08T18:11:10.429Z,7.56
2023-03-08T18:13:38.746Z,7.47
2023-03-08T18:16:07.554Z,7.41
2023-03-08T18:18:34.890Z,7.32
2023-03-08T18:21:12.558Z,7.26
2023-03-08T18:23:42.923Z,7.22
2023-03-08T18:26:11.123Z,7.18
2023-03-08T18:28:37.841Z,7.16
2023-03-08T18:31:08.959Z,7.15
2023-03-08T18:33:36.512Z,7.12
2023-03-08T18:36:03.715Z,7.08
2023-03-08T18:38:30.635Z,7.03
2023-03-08T18:40:57.532Z,6.98
2023-03-08T18:43:27.098Z,6.94
2023-03-08T18:45:55.082Z,6.91
2023-03-08T18:48:22.715Z,6.87
2023-03-08T18:50:49.556Z,6.86
2023-03-08T18:53:18.469Z,6.85
2023-03-08T18:55:56.414Z,6.90
2023-03-08T18:58:25.419Z,6.97
2023-03-08T19:00:58.328Z,7.03
2023-03-08T19:03:29.373Z,7.05
2023-03-08T19:05:56.123Z,7.06
2023-03-08T19:08:24.677Z,7.04
2023-03-08T19:10:52.364Z,7.02
2023-03-08T19:13:20.642Z,6.97
2023-03-08T19:15:50.454Z,6.90
2023-03-08T19:18:17.738Z,6.82
2023-03-08T19:20:44.652Z,6.76
2023-03-08T19:23:11.469Z,6.67
2023-03-08T19:25:58.614Z,6.56
2023-03-08T19:28:26.217Z,6.44
2023-03-08T19:30:53.018Z,6.35
2023-03-08T19:33:31.300Z,6.25
2023-03-08T19:35:59.055Z,6.13
2023-03-08T19:38:26.654Z,6.01
2023-03-08T19:40:53.499Z,5.90
2023-03-08T19:43:21.782Z,5.78
2023-03-08T19:45:49.207Z,5.67
2023-03-08T19:48:16.795Z,5.59
2023-03-08T19:50:45.280Z,5.49
2023-03-08T19:53:12.430Z,5.38
2023-03-08T19:55:53.741Z,5.30
2023-03-08T19:58:20.875Z,5.29
2023-03-08T20:00:47.723Z,5.30
2023-03-08T20:03:15.983Z,5.29
2023-03-08T20:05:47.670Z,5.28
2023-03-08T20:08:15.128Z,5.26
2023-03-08T20:10:42.049Z,5.22
2023-03-08T20:13:10.213Z,5.18
2023-03-08T20:15:37.345Z,5.12
2023-03-08T20:18:04.207Z,5.02
2023-03-08T20:20:31.466Z,4.89
2023-03-08T20:34:15.684Z,4.89
2023-03-08T20:36:48.240Z,5.26
2023-03-08T20:39:18.485Z,5.20
2023-03-08T20:41:46.761Z,5.13
2023-03-08T20:44:15.242Z,4.99
2023-03-08T20:46:44.032Z,4.84
2023-03-08T20:49:16.841Z,4.72
2023-03-08T20:51:46.124Z,4.62
2023-03-08T20:54:14.394Z,4.53
2023-03-08T20:56:43.582Z,4.47
2023-03-08T20:59:12.086Z,4.43
2023-03-08T21:01:42.081Z,4.41
2023-03-08T21:04:10.313Z,4.37
2023-03-08T21:06:38.851Z,4.34
2023-03-08T21:09:06.954Z,4.28
2023-03-08T21:11:35.211Z,4.20
2023-03-08T21:14:03.783Z,4.14
2023-03-08T21:16:33.492Z,4.05
2023-03-08T21:19:03.028Z,3.94
2023-03-08T21:21:34.552Z,3.83
2023-03-08T21:24:16.356Z,3.73
2023-03-08T21:26:44.773Z,3.69
2023-03-08T21:29:14.750Z,3.66
2023-03-08T21:31:44.659Z,3.59
2023-03-08T21:34:13.341Z,3.49
2023-03-08T21:36:44.337Z,3.44
2023-03-08T21:39:12.963Z,3.40
2023-03-08T21:41:43.404Z,3.36
2023-03-08T21:44:14.545Z,3.31
2023-03-08T21:46:44.813Z,3.30
2023-03-08T21:49:18.263Z,3.37
2023-03-08T21:51:46.429Z,3.43
2023-03-08T21:54:15.248Z,3.42
2023-03-08T21:56:43.721Z,3.43
2023-03-08T21:59:13.312Z,3.42
2023-03-08T22:01:41.950Z,3.47
2023-03-08T22:04:10.377Z,3.56
2023-03-08T22:06:38.755Z,3.53
2023-03-08T22:09:10.207Z,3.57
2023-03-08T22:11:38.517Z,3.57
2023-03-08T22:14:07.606Z,3.55
2023-03-08T22:16:41.875Z,3.49
2023-03-08T22:19:10.377Z,3.47
2023-03-08T22:21:38.551Z,3.43
2023-03-08T22:24:10.190Z,3.22
2023-03-08T22:26:43.808Z,3.18
2023-03-08T22:29:11.991Z,3.20
2023-03-08T22:31:41.439Z,3.28
2023-03-08T22:34:11.033Z,3.37
2023-03-08T22:36:47.155Z,3.49
2023-03-08T22:39:15.435Z,3.62
2023-03-08T22:41:43.711Z,3.76
2023-03-08T22:44:16.092Z,3.88
2023-03-08T22:46:48.432Z,3.96
2023-03-08T22:49:17.162Z,4.01
2023-03-08T22:51:45.840Z,4.02
2023-03-08T22:54:18.843Z,4.02
2023-03-08T22:56:48.845Z,4.00
2023-03-08T22:59:17.929Z,3.96
2023-03-08T23:01:46.126Z,3.89
2023-03-08T23:04:14.705Z,3.82
2023-03-08T23:06:43.682Z,3.77
2023-03-08T23:09:12.903Z,3.81
2023-03-08T23:11:45.369Z,3.89
2023-03-08T23:14:16.599Z,3.96
2023-03-08T23:16:46.584Z,4.04
2023-03-08T23:19:17.000Z,4.11
2023-03-08T23:22:05.083Z,4.16
2023-03-08T23:24:34.699Z,4.18
2023-03-08T23:27:04.412Z,4.17
2023-03-08T23:29:32.581Z,4.10
2023-03-08T23:32:01.119Z,4.07
2023-03-08T23:34:31.278Z,4.04
2023-03-08T23:37:05.917Z,4.01
2023-03-08T23:39:36.677Z,4.00
2023-03-08T23:42:06.174Z,4.01
2023-03-08T23:44:38.008Z,4.05
2023-03-08T23:47:06.708Z,4.09
2023-03-08T23:49:34.767Z,4.12
2023-03-08T23:52:03.350Z,4.14
2023-03-08T23:54:35.929Z,4.15
2023-03-08T23:57:04.628Z,4.09
2023-03-08T23:59:33.100Z,4.12
